createdAt,value
2022-08-12T00:02:03.762Z,11.43
2022-08-12T00:04:51.938Z,9.40
2022-08-12T00:07:37.279Z,10.50
2022-08-12T00:10:23.090Z,11.80
2022-08-12T00:13:10.072Z,10.93
2022-08-12T00:15:56.424Z,10.33
2022-08-12T00:18:41.439Z,12.47
2022-08-12T00:21:26.769Z,13.37
2022-08-12T00:24:12.994Z,13.80
2022-08-12T00:26:59.547Z,11.07
2022-08-12T00:29:48.214Z,13.30
2022-08-12T00:32:54.737Z,12.13
2022-08-12T00:35:39.353Z,12.43
2022-08-12T00:38:25.614Z,12.27
2022-08-12T00:41:10.930Z,13.03
2022-08-12T00:43:38.641Z,12.73
2022-08-12T00:46:25.072Z,13.87
2022-08-12T00:48:53.286Z,13.93
2022-08-12T00:51:21.215Z,12.63
2022-08-12T00:53:49.818Z,12.43
2022-08-12T00:56:19.088Z,12.63
2022-08-12T00:58:50.731Z,15.53
2022-08-12T01:01:21.545Z,13.60
2022-08-12T01:04:08.217Z,13.23
2022-08-12T01:06:55.697Z,14.20
2022-08-12T01:09:41.234Z,12.40
2022-08-12T01:12:11.173Z,11.30
2022-08-12T01:14:41.898Z,12.03
2022-08-12T01:17:11.008Z,11.20
2022-08-12T01:19:39.218Z,11.63
2022-08-12T01:22:30.910Z,13.87
2022-08-12T01:25:07.270Z,16.07
2022-08-12T01:27:36.477Z,15.23
2022-08-12T01:30:08.459Z,17.30
2022-08-12T01:32:38.108Z,15.10
2022-08-12T01:35:08.803Z,15.00
2022-08-12T01:37:43.413Z,17.13
2022-08-12T01:40:35.056Z,16.93
2022-08-12T01:43:07.604Z,20.60
2022-08-12T01:45:43.398Z,24.53
2022-08-12T01:48:18.540Z,24.80
2022-08-12T01:51:00.311Z,23.50
2022-08-12T01:53:50.163Z,25.37
2022-08-12T01:56:25.520Z,23.13
2022-08-12T01:59:15.644Z,16.57
2022-08-12T02:01:45.600Z,20.33
2022-08-12T02:04:40.301Z,19.37
2022-08-12T02:07:35.782Z,15.50
2022-08-12T02:10:49.551Z,16.87
2022-08-12T02:13:42.036Z,17.60
2022-08-12T02:16:22.357Z,16.13
2022-08-12T02:18:58.537Z,18.50
2022-08-12T02:21:38.456Z,17.33
2022-08-12T02:24:10.876Z,16.73
2022-08-12T02:26:41.654Z,17.23
2022-08-12T02:29:10.692Z,16.43
2022-08-12T02:31:39.489Z,17.30
2022-08-12T02:34:10.130Z,19.20
2022-08-12T02:36:40.558Z,16.03
2022-08-12T02:39:11.168Z,18.90
2022-08-12T02:41:43.470Z,19.37
2022-08-12T02:44:16.254Z,15.70
2022-08-12T02:46:50.254Z,25.83
2022-08-12T02:49:24.020Z,27.60
2022-08-12T02:51:51.928Z,29.30
2022-08-12T02:54:21.035Z,27.07
2022-08-12T02:56:50.808Z,26.23
2022-08-12T02:59:22.904Z,25.70
2022-08-12T03:01:53.357Z,33.17
2022-08-12T03:04:26.585Z,33.57
2022-08-12T03:07:02.845Z,30.67
2022-08-12T03:09:56.116Z,37.40
2022-08-12T03:12:24.146Z,35.43
2022-08-12T03:14:55.449Z,32.97
2022-08-12T03:17:30.266Z,36.40
2022-08-12T03:20:09.925Z,37.27
2022-08-12T03:22:40.530Z,35.23
2022-08-12T03:25:17.086Z,38.53
2022-08-12T03:27:49.633Z,40.57
2022-08-12T03:30:20.680Z,41.27
2022-08-12T03:32:50.786Z,40.40
2022-08-12T03:35:41.500Z,38.97
2022-08-12T03:38:12.117Z,45.23
2022-08-12T03:41:09.748Z,42.97
2022-08-12T03:44:06.502Z,37.70
2022-08-12T03:46:57.521Z,37.83
2022-08-12T03:49:43.441Z,44.73
2022-08-12T03:52:28.709Z,45.43
2022-08-12T03:55:13.934Z,44.40
2022-08-12T03:57:58.937Z,38.37
2022-08-12T04:00:26.729Z,41.13
2022-08-12T04:02:59.110Z,41.17
2022-08-12T04:05:55.973Z,40.93
2022-08-12T04:08:15.080Z,40.70
2022-08-12T04:10:56.670Z,39.17
2022-08-12T04:13:25.515Z,35.47
2022-08-12T04:15:54.045Z,39.30
2022-08-12T04:18:23.488Z,38.23
2022-08-12T04:20:52.277Z,35.50
2022-08-12T04:23:21.812Z,35.70
2022-08-12T04:25:49.369Z,33.07
2022-08-12T04:28:17.151Z,32.20
2022-08-12T04:30:44.717Z,35.60
2022-08-12T04:33:13.647Z,28.07
2022-08-12T04:35:42.649Z,34.93
2022-08-12T04:38:10.940Z,36.00
2022-08-12T04:40:38.846Z,32.80
2022-08-12T04:43:06.985Z,33.50
2022-08-12T04:45:54.501Z,36.50
2022-08-12T04:48:22.322Z,34.63
2022-08-12T04:50:51.735Z,33.60
2022-08-12T04:53:19.985Z,44.47
2022-08-12T04:55:48.220Z,47.60
2022-08-12T04:58:15.781Z,54.00
2022-08-12T05:00:57.476Z,36.40
2022-08-12T05:03:26.344Z,37.27
2022-08-12T05:05:56.549Z,32.20
2022-08-12T05:08:25.472Z,29.97
2022-08-12T05:10:54.106Z,28.80
2022-08-12T05:13:24.030Z,22.33
2022-08-12T05:16:04.827Z,18.50
2022-08-12T05:18:33.838Z,17.50
2022-08-12T05:21:04.198Z,15.97
2022-08-12T05:23:32.085Z,15.27
2022-08-12T05:26:00.951Z,14.53
2022-08-12T05:28:30.301Z,13.13
2022-08-12T05:31:01.651Z,13.00
2022-08-12T05:33:33.096Z,12.30
2022-08-12T05:36:00.670Z,11.90
2022-08-12T05:38:52.538Z,12.50
2022-08-12T05:41:20.341Z,9.83
2022-08-12T05:43:51.128Z,10.23
2022-08-12T05:46:19.849Z,9.93
2022-08-12T05:48:47.881Z,10.03
2022-08-12T05:51:15.446Z,9.47
2022-08-12T05:53:44.658Z,10.30
2022-08-12T05:56:23.778Z,9.60
2022-08-12T05:58:52.661Z,8.90
2022-08-12T06:02:09.599Z,8.90
2022-08-12T06:04:09.669Z,8.87
2022-08-12T06:06:41.664Z,7.67
2022-08-12T06:09:11.294Z,8.63
2022-08-12T06:11:41.356Z,8.87
2022-08-12T06:14:29.017Z,8.00
2022-08-12T06:16:57.867Z,8.70
2022-08-12T06:20:26.536Z,7.53
2022-08-12T06:22:15.228Z,7.43
2022-08-12T06:24:44.128Z,7.40
2022-08-12T06:27:18.533Z,7.40
2022-08-12T06:30:08.553Z,6.10
2022-08-12T06:32:34.478Z,6.47
2022-08-12T06:35:26.065Z,6.43
2022-08-12T06:37:56.418Z,7.22
2022-08-12T06:40:43.379Z,6.90
2022-08-12T06:43:10.944Z,6.50
2022-08-12T06:45:45.394Z,6.95
2022-08-12T06:48:14.239Z,6.90
2022-08-12T06:50:42.420Z,7.13
2022-08-12T06:53:11.029Z,5.43
2022-08-12T06:55:57.603Z,4.93
2022-08-12T06:58:26.329Z,5.00
2022-08-12T07:00:55.802Z,4.57
2022-08-12T07:03:28.635Z,5.22
2022-08-12T07:05:58.582Z,4.05
2022-08-12T07:08:29.192Z,4.32
2022-08-12T07:11:00.922Z,4.15
2022-08-12T07:13:30.934Z,3.85
2022-08-12T07:15:58.613Z,3.70
2022-08-12T07:18:32.480Z,7.40
2022-08-12T07:21:03.806Z,8.37
2022-08-12T07:23:33.436Z,3.97
2022-08-12T07:26:03.834Z,4.32
2022-08-12T07:28:34.813Z,4.70
2022-08-12T07:31:04.790Z,5.30
2022-08-12T07:33:32.935Z,4.47
2022-08-12T07:36:03.170Z,4.70
2022-08-12T07:38:33.473Z,4.93
2022-08-12T07:41:06.981Z,5.60
2022-08-12T07:43:36.708Z,4.53
2022-08-12T07:46:10.245Z,4.43
2022-08-12T07:48:41.236Z,4.40
2022-08-12T07:51:09.434Z,5.20
2022-08-12T07:54:00.165Z,5.40
2022-08-12T07:56:27.476Z,4.17
2022-08-12T07:58:58.893Z,4.73
2022-08-12T08:01:26.549Z,4.00
2022-08-12T08:04:17.978Z,5.90
2022-08-12T08:06:46.700Z,5.40
2022-08-12T08:09:16.298Z,3.70
2022-08-12T08:12:03.129Z,3.93
2022-08-12T08:14:32.382Z,3.90
2022-08-12T08:17:03.381Z,4.37
2022-08-12T08:19:33.560Z,3.70
2022-08-12T08:22:32.068Z,4.43
2022-08-12T08:25:34.415Z,4.27
2022-08-12T08:28:02.723Z,4.03
2022-08-12T08:30:31.950Z,2.90
2022-08-12T08:33:00.042Z,3.37
2022-08-12T08:35:38.745Z,4.30
2022-08-12T08:38:28.078Z,4.60
2022-08-12T08:42:15.895Z,3.80
2022-08-12T08:44:07.635Z,3.83
2022-08-12T08:46:37.728Z,3.70
2022-08-12T08:49:05.925Z,3.70
2022-08-12T08:51:33.866Z,4.27
2022-08-12T08:54:01.577Z,4.40
2022-08-12T08:56:30.090Z,4.10
2022-08-12T08:58:57.785Z,3.90
2022-08-12T09:01:38.015Z,3.73
2022-08-12T09:05:09.005Z,3.63
2022-08-12T09:06:56.699Z,3.90
2022-08-12T09:09:24.788Z,3.67
2022-08-12T09:12:27.537Z,3.90
2022-08-12T09:14:55.800Z,7.43
2022-08-12T09:17:26.675Z,3.87
2022-08-12T09:20:10.829Z,3.53
2022-08-12T09:22:48.971Z,3.60
2022-08-12T09:25:25.985Z,6.63
2022-08-12T09:28:03.682Z,3.30
2022-08-12T09:30:42.472Z,3.57
2022-08-12T09:33:18.790Z,3.10
2022-08-12T09:36:03.131Z,4.63
2022-08-12T09:38:33.638Z,3.20
2022-08-12T09:42:34.189Z,3.83
2022-08-12T09:44:38.161Z,4.30
2022-08-12T09:46:57.303Z,3.20
2022-08-12T09:49:26.210Z,3.53
2022-08-12T09:51:55.299Z,3.13
2022-08-12T09:54:33.626Z,3.63
2022-08-12T09:58:44.598Z,3.83
2022-08-12T10:00:12.531Z,4.30
2022-08-12T10:03:01.660Z,5.40
2022-08-12T10:06:27.158Z,4.10
2022-08-12T10:08:22.031Z,4.50
2022-08-12T10:11:05.266Z,4.50
2022-08-12T10:13:43.967Z,4.43
2022-08-12T10:16:18.550Z,4.00
2022-08-12T10:18:53.457Z,4.57
2022-08-12T10:21:24.255Z,3.87
2022-08-12T10:24:05.129Z,4.10
2022-08-12T10:26:51.885Z,4.47
2022-08-12T10:30:37.151Z,3.90
2022-08-12T10:32:43.041Z,5.33
2022-08-12T10:35:15.368Z,4.33
2022-08-12T10:38:33.550Z,4.20
2022-08-12T10:40:34.269Z,4.23
2022-08-12T10:43:23.283Z,4.20
2022-08-12T10:45:58.517Z,3.70
2022-08-12T10:48:33.730Z,5.40
2022-08-12T10:51:51.550Z,3.00
2022-08-12T10:54:00.742Z,4.53
2022-08-12T10:56:34.790Z,3.40
2022-08-12T10:59:03.844Z,3.70
2022-08-12T11:04:17.384Z,4.00
2022-08-12T11:04:34.269Z,4.40
2022-08-12T11:08:34.640Z,4.60
2022-08-12T11:10:01.661Z,4.13
2022-08-12T11:12:55.504Z,3.77
2022-08-12T11:15:33.148Z,4.70
2022-08-12T11:18:11.951Z,4.33
2022-08-12T11:20:47.418Z,3.53
2022-08-12T11:23:35.966Z,4.90
2022-08-12T11:26:06.175Z,4.50
2022-08-12T11:28:36.756Z,3.70
2022-08-12T11:31:07.356Z,3.73
2022-08-12T11:34:05.858Z,3.50
2022-08-12T11:36:28.043Z,3.63
2022-08-12T11:38:56.726Z,4.00
2022-08-12T11:41:31.686Z,3.93
2022-08-12T11:44:32.002Z,3.70
2022-08-12T11:46:50.863Z,6.40
2022-08-12T11:49:30.459Z,4.47
2022-08-12T11:52:01.140Z,3.50
2022-08-12T11:54:29.786Z,3.90
2022-08-12T11:57:00.092Z,4.37
2022-08-12T12:02:20.247Z,4.77
2022-08-12T12:04:52.561Z,3.13
2022-08-12T12:07:22.349Z,4.80
2022-08-12T12:09:53.399Z,4.03
2022-08-12T12:12:25.048Z,5.33
2022-08-12T12:14:54.223Z,4.17
2022-08-12T12:17:22.717Z,4.33
2022-08-12T12:19:50.330Z,4.10
2022-08-12T12:22:23.139Z,4.03
2022-08-12T12:24:54.574Z,3.30
2022-08-12T12:27:42.273Z,3.53
2022-08-12T12:30:19.273Z,3.70
2022-08-12T12:32:54.547Z,4.30
2022-08-12T12:36:16.596Z,3.77
2022-08-12T12:38:12.603Z,3.60
2022-08-12T12:40:43.985Z,3.87
2022-08-12T12:43:13.838Z,3.53
2022-08-12T12:45:44.577Z,5.87
2022-08-12T12:48:15.499Z,3.70
2022-08-12T12:50:45.507Z,3.67
2022-08-12T12:54:05.252Z,3.87
2022-08-12T12:56:15.930Z,4.23
2022-08-12T12:58:45.100Z,4.00
2022-08-12T13:01:26.792Z,5.80
2022-08-12T13:04:01.962Z,3.70
2022-08-12T13:06:31.842Z,3.53
2022-08-12T13:09:02.758Z,3.53
2022-08-12T13:11:41.358Z,3.50
2022-08-12T13:14:28.398Z,3.60
2022-08-12T13:16:58.361Z,3.67
2022-08-12T13:19:38.682Z,3.80
2022-08-12T13:22:21.100Z,3.80
2022-08-12T13:24:54.630Z,5.13
2022-08-12T13:27:28.223Z,3.87
2022-08-12T13:30:00.920Z,3.93
2022-08-12T13:32:31.834Z,3.50
2022-08-12T13:35:04.641Z,4.63
2022-08-12T13:37:55.333Z,6.07
2022-08-12T13:40:24.798Z,3.90
2022-08-12T13:42:57.774Z,3.30
2022-08-12T13:45:29.176Z,3.67
2022-08-12T13:48:00.043Z,3.50
2022-08-12T13:50:32.399Z,3.93
2022-08-12T13:53:01.249Z,4.00
2022-08-12T13:55:59.400Z,5.47
2022-08-12T13:58:30.514Z,5.23
2022-08-12T14:01:04.562Z,3.77
2022-08-12T14:03:51.409Z,8.40
2022-08-12T14:06:20.649Z,6.40
2022-08-12T14:08:50.605Z,3.93
2022-08-12T14:11:19.242Z,3.83
2022-08-12T14:14:05.978Z,3.60
2022-08-12T14:16:48.674Z,3.50
2022-08-12T14:19:23.338Z,4.33
2022-08-12T14:21:59.728Z,3.70
2022-08-12T14:24:40.662Z,3.70
2022-08-12T14:27:10.919Z,3.57
2022-08-12T14:30:05.767Z,3.63
2022-08-12T14:32:34.626Z,3.77
2022-08-12T14:35:03.854Z,5.70
2022-08-12T14:37:56.576Z,7.60
2022-08-12T14:40:25.933Z,3.90
2022-08-12T14:42:55.770Z,4.93
2022-08-12T14:45:45.114Z,3.80
2022-08-12T14:48:15.597Z,6.13
2022-08-12T14:51:02.667Z,6.60
2022-08-12T14:57:05.624Z,4.60
2022-08-12T14:59:25.480Z,3.80
2022-08-12T15:01:54.678Z,4.23
2022-08-12T15:04:28.460Z,3.60
2022-08-12T15:06:56.081Z,5.20
2022-08-12T15:09:29.090Z,3.80
2022-08-12T15:12:03.514Z,3.10
2022-08-12T15:14:31.824Z,4.27
2022-08-12T15:17:00.471Z,4.90
2022-08-12T15:20:11.340Z,3.30
2022-08-12T15:22:39.647Z,3.63
2022-08-12T15:25:07.488Z,4.40
2022-08-12T15:28:03.936Z,4.23
2022-08-12T15:30:31.873Z,8.83
2022-08-12T15:33:00.083Z,3.43
2022-08-12T15:35:50.358Z,3.80
2022-08-12T15:38:22.017Z,5.53
2022-08-12T15:40:53.319Z,4.00
2022-08-12T15:43:35.364Z,7.33
2022-08-12T15:46:15.846Z,3.83
2022-08-12T15:48:47.053Z,3.67
2022-08-12T15:51:57.575Z,4.07
2022-08-12T15:54:30.729Z,3.50
2022-08-12T15:57:03.348Z,4.80
2022-08-12T15:59:32.696Z,3.77
2022-08-12T16:02:18.603Z,3.40
2022-08-12T16:04:50.353Z,4.70
2022-08-12T16:07:30.125Z,3.40
2022-08-12T16:10:06.605Z,4.63
2022-08-12T16:12:41.859Z,3.93
2022-08-12T16:15:11.089Z,3.40
2022-08-12T16:18:19.487Z,4.40
2022-08-12T16:20:33.846Z,3.97
2022-08-12T16:23:36.128Z,5.07
2022-08-12T16:26:06.198Z,3.70
2022-08-12T16:28:41.633Z,3.77
2022-08-12T16:31:18.668Z,3.63
2022-08-12T16:33:59.697Z,8.20
2022-08-12T16:36:29.119Z,6.07
2022-08-12T16:39:01.219Z,7.40
2022-08-12T16:41:38.086Z,3.90
2022-08-12T16:44:08.262Z,4.40
2022-08-12T16:46:36.282Z,3.40
2022-08-12T16:49:08.866Z,5.43
2022-08-12T16:51:46.949Z,3.97
2022-08-12T16:54:18.427Z,5.27
2022-08-12T16:56:50.875Z,7.17
2022-08-12T16:59:26.223Z,4.40
2022-08-12T17:01:59.015Z,4.73
2022-08-12T17:04:29.018Z,3.53
2022-08-12T17:06:56.581Z,3.60
2022-08-12T17:09:34.154Z,3.40
2022-08-12T17:12:08.708Z,4.03
2022-08-12T17:14:37.748Z,3.43
2022-08-12T17:17:18.464Z,3.33
2022-08-12T17:20:30.678Z,3.70
2022-08-12T17:22:52.684Z,3.10
2022-08-12T17:25:23.138Z,3.57
2022-08-12T17:27:57.219Z,3.57
2022-08-12T17:30:27.493Z,3.10
2022-08-12T17:32:56.486Z,3.77
2022-08-12T17:35:37.445Z,3.97
2022-08-12T17:38:13.607Z,5.03
2022-08-12T17:40:46.434Z,4.50
2022-08-12T17:43:54.763Z,3.97
2022-08-12T17:46:12.606Z,3.70
2022-08-12T17:48:55.152Z,5.67
2022-08-12T17:51:24.306Z,3.83
2022-08-12T17:54:11.112Z,4.13
2022-08-12T17:56:43.499Z,3.33
2022-08-12T17:59:12.255Z,8.70
2022-08-12T18:01:45.419Z,4.70
2022-08-12T18:04:22.129Z,3.60
2022-08-12T18:06:51.881Z,5.40
2022-08-12T18:09:19.641Z,4.13
2022-08-12T18:12:08.334Z,6.87
2022-08-12T18:14:36.923Z,3.83
2022-08-12T18:17:08.771Z,6.07
2022-08-12T18:20:05.023Z,3.97
2022-08-12T18:22:31.420Z,3.67
2022-08-12T18:26:13.163Z,4.50
2022-08-12T18:28:15.776Z,3.80
2022-08-12T18:30:53.313Z,6.20
2022-08-12T18:33:25.367Z,3.63
2022-08-12T18:35:56.782Z,4.97
2022-08-12T18:38:26.820Z,4.63
2022-08-12T18:41:20.919Z,5.00
2022-08-12T18:43:59.834Z,5.57
2022-08-12T18:46:34.887Z,4.30
2022-08-12T18:49:18.853Z,3.70
2022-08-12T18:51:54.788Z,4.53
2022-08-12T18:54:25.598Z,4.80
2022-08-12T18:56:54.063Z,13.73
2022-08-12T19:00:01.582Z,4.70
2022-08-12T19:02:19.289Z,3.97
2022-08-12T19:04:52.890Z,3.77
2022-08-12T19:07:23.188Z,5.00
2022-08-12T19:09:58.710Z,4.00
2022-08-12T19:12:56.894Z,4.63
2022-08-12T19:15:27.329Z,4.20
2022-08-12T19:18:01.028Z,9.53
2022-08-12T19:20:31.654Z,5.23
2022-08-12T19:23:07.285Z,4.00
2022-08-12T19:26:01.710Z,4.33
2022-08-12T19:28:35.238Z,4.93
2022-08-12T19:31:44.835Z,5.33
2022-08-12T19:34:56.333Z,4.30
2022-08-12T19:37:19.991Z,4.10
2022-08-12T19:40:09.445Z,40.37
2022-08-12T19:42:42.809Z,4.80
2022-08-12T19:45:15.788Z,6.20
2022-08-12T19:47:46.504Z,4.40
2022-08-12T19:50:14.794Z,4.23
2022-08-12T19:52:48.053Z,4.60
2022-08-12T19:55:21.815Z,6.70
2022-08-12T19:58:01.481Z,5.67
2022-08-12T20:00:30.610Z,5.00
2022-08-12T20:03:00.527Z,5.67
2022-08-12T20:06:05.930Z,5.20
2022-08-12T20:08:31.266Z,4.73
2022-08-12T20:12:14.577Z,5.40
2022-08-12T20:14:00.795Z,4.43
2022-08-12T20:16:52.352Z,4.73
2022-08-12T20:19:53.047Z,5.03
2022-08-12T20:22:24.384Z,6.07
2022-08-12T20:24:58.028Z,4.47
2022-08-12T20:28:04.448Z,5.30
2022-08-12T20:30:18.111Z,4.50
2022-08-12T20:32:56.040Z,4.40
2022-08-12T20:36:05.824Z,6.70
2022-08-12T20:38:26.494Z,4.67
2022-08-12T20:40:55.201Z,7.53
2022-08-12T20:43:24.316Z,5.50
2022-08-12T20:45:57.589Z,5.43
2022-08-12T20:48:28.532Z,4.50
2022-08-12T20:51:04.299Z,5.10
2022-08-12T20:53:57.776Z,4.50
2022-08-12T20:56:30.370Z,5.10
2022-08-12T20:59:00.805Z,4.90
2022-08-12T21:01:36.817Z,5.33
2022-08-12T21:04:34.477Z,6.60
2022-08-12T21:07:09.709Z,9.50
2022-08-12T21:09:41.899Z,5.13
2022-08-12T21:12:27.346Z,5.77
2022-08-12T21:15:16.627Z,5.43
2022-08-12T21:18:08.775Z,7.20
2022-08-12T21:20:35.700Z,6.43
2022-08-12T21:23:06.349Z,8.40
2022-08-12T21:25:44.481Z,5.97
2022-08-12T21:28:13.033Z,4.17
2022-08-12T21:30:54.702Z,6.03
2022-08-12T21:33:31.306Z,6.47
2022-08-12T21:36:00.904Z,5.50
2022-08-12T21:38:40.222Z,5.13
2022-08-12T21:41:15.686Z,6.57
2022-08-12T21:43:45.156Z,9.63
2022-08-12T21:46:35.327Z,8.10
2022-08-12T21:49:05.386Z,7.17
2022-08-12T21:51:49.216Z,8.03
2022-08-12T21:54:22.019Z,5.07
2022-08-12T21:56:50.413Z,9.40
2022-08-12T21:59:18.829Z,5.97
2022-08-12T22:01:48.496Z,7.87
2022-08-12T22:04:35.543Z,4.90
2022-08-12T22:07:06.076Z,5.37
2022-08-12T22:09:43.126Z,7.23
2022-08-12T22:12:28.912Z,5.10
2022-08-12T22:14:56.532Z,6.33
2022-08-12T22:17:33.878Z,8.00
2022-08-12T22:20:21.725Z,5.63
2022-08-12T22:22:56.334Z,8.53
2022-08-12T22:25:27.571Z,8.77
2022-08-12T22:28:12.772Z,7.07
2022-08-12T22:30:58.047Z,6.40
2022-08-12T22:33:25.622Z,14.37
2022-08-12T22:35:59.348Z,7.30
2022-08-12T22:38:29.693Z,6.50
2022-08-12T22:41:01.513Z,6.73
2022-08-12T22:44:01.182Z,6.10
2022-08-12T22:46:53.632Z,6.93
2022-08-12T22:49:22.761Z,6.60
2022-08-12T22:52:06.905Z,7.50
2022-08-12T22:54:37.632Z,6.77
2022-08-12T22:57:15.802Z,8.03
2022-08-12T22:59:55.844Z,9.40
2022-08-12T23:02:28.855Z,9.83
2022-08-12T23:04:56.872Z,9.37
2022-08-12T23:07:24.681Z,8.43
2022-08-12T23:09:54.769Z,8.20
2022-08-12T23:12:46.485Z,8.40
2022-08-12T23:15:14.793Z,11.67
2022-08-12T23:17:42.697Z,12.23
2022-08-12T23:20:12.845Z,15.33
2022-08-12T23:22:40.433Z,11.03
2022-08-12T23:25:20.962Z,11.77
2022-08-12T23:28:29.742Z,10.83
2022-08-12T23:31:04.624Z,10.00
2022-08-12T23:34:01.392Z,9.33
2022-08-12T23:36:31.731Z,9.37
2022-08-12T23:40:15.583Z,9.40
2022-08-12T23:42:16.995Z,10.93
2022-08-12T23:44:52.442Z,11.17
2022-08-12T23:47:21.275Z,11.80
2022-08-12T23:49:57.764Z,17.20
2022-08-12T23:52:28.552Z,10.63
2022-08-12T23:55:25.098Z,11.10
2022-08-12T23:58:17.318Z,11.53
